Time;durP1;ratioP1;P1;durP2;ratioP2;P2;SDS_P1;SDS_P2;PMS_P1;PMS_P2;Temp;Humidity;BMP_temperature;BMP_pressure;BME280_temperature;BME280_humidity;BME280_pressure;Samples;Min_cycle;Max_cycle;Signal;HPM_P1;HPM_P2
2023/05/24 00:01:24;;;;;;;31.35;7.18;;;10.40;99.90;;;;;;5071017;28;20032;-68
2023/05/24 00:03:51;;;;;;;;;;;10.30;99.90;;;;;;5070103;28;20076;-70
2023/05/24 00:06:17;;;;;;;24.10;5.93;;;10.30;99.90;;;;;;5071244;28;19938;-70
2023/05/24 00:08:43;;;;;;;26.50;6.60;;;;;;;;;;5059248;28;20096;-69
2023/05/24 00:11:10;;;;;;;25.73;6.38;;;;;;;;;;5072655;28;20110;-69
2023/05/24 00:13:36;;;;;;;30.63;6.22;;;10.20;99.90;;;;;;5074289;28;20111;-69
2023/05/24 00:16:01;;;;;;;26.17;5.18;;;10.50;99.90;;;;;;5073256;28;20499;-69
2023/05/24 00:18:30;;;;;;;18.67;5.07;;;10.40;99.90;;;;;;5064982;28;20041;-70
2023/05/24 00:20:57;;;;;;;25.17;5.53;;;10.20;99.90;;;;;;5054424;28;20033;-69
2023/05/24 00:23:23;;;;;;;26.88;6.75;;;10.30;99.90;;;;;;5054033;28;20557;-69
2023/05/24 00:25:49;;;;;;;23.73;6.63;;;;;;;;;;5054109;28;20033;-68
2023/05/24 00:28:15;;;;;;;21.40;5.70;;;10.40;99.90;;;;;;5061465;28;20411;-70
2023/05/24 00:30:40;;;;;;;24.45;6.50;;;;;;;;;;5074331;28;20032;-70
2023/05/24 00:33:06;;;;;;;23.02;5.90;;;10.30;99.90;;;;;;5073940;28;20446;-69
2023/05/24 00:35:32;;;;;;;28.08;7.10;;;10.20;99.90;;;;;;5073996;28;20036;-69
2023/05/24 00:37:57;;;;;;;29.92;5.28;;;10.30;99.90;;;;;;5068712;28;20077;-70
2023/05/24 00:40:23;;;;;;;25.17;5.85;;;10.40;99.90;;;;;;5053918;28;20405;-70
2023/05/24 00:42:48;;;;;;;21.08;6.18;;;10.40;99.90;;;;;;5053826;28;20041;-70
2023/05/24 00:45:14;;;;;;;26.05;6.00;;;10.30;99.90;;;;;;5053966;28;20041;-69
2023/05/24 00:47:40;;;;;;;26.23;6.13;;;10.30;99.90;;;;;;5055422;28;20040;-69
2023/05/24 00:50:07;;;;;;;23.80;5.90;;;10.50;99.90;;;;;;5073902;28;20076;-70
2023/05/24 00:52:33;;;;;;;24.33;5.63;;;10.50;99.90;;;;;;5073531;28;20066;-69
2023/05/24 00:54:58;;;;;;;33.42;5.68;;;10.40;99.90;;;;;;5073787;28;20037;-69
2023/05/24 00:57:24;;;;;;;30.08;7.68;;;;;;;;;;5073788;28;20450;-71
2023/05/24 00:59:51;;;;;;;27.60;5.40;;;;;;;;;;5053979;28;20068;-69
2023/05/24 01:02:17;;;;;;;22.83;6.82;;;10.30;99.90;;;;;;5053428;28;20094;-69
2023/05/24 01:04:43;;;;;;;27.33;5.97;;;;;;;;;;5052227;28;20045;-69
2023/05/24 01:07:26;;;;;;;28.05;7.05;;;10.30;99.90;;;;;;5053289;28;20504;-70
2023/05/24 01:10:03;;;;;;;22.73;5.27;;;10.30;99.90;;;;;;5053997;28;20037;-69
2023/05/24 01:12:49;;;;;;;27.88;6.43;;;10.30;99.90;;;;;;5053182;28;20051;-69
2023/05/24 01:15:23;;;;;;;31.98;5.78;;;10.30;99.90;;;;;;5053266;28;20072;-69
2023/05/24 01:18:10;;;;;;;24.50;5.68;;;10.30;99.90;;;;;;5055090;28;20041;-69
2023/05/24 01:20:37;;;;;;;23.17;6.30;;;10.40;99.90;;;;;;5072333;28;20055;-70
2023/05/24 01:23:13;;;;;;;23.95;5.43;;;10.40;99.90;;;;;;5073299;28;20037;-69
2023/05/24 01:26:03;;;;;;;29.17;5.53;;;10.40;99.90;;;;;;5072212;28;20053;-69
2023/05/24 01:28:32;;;;;;;24.80;5.28;;;10.20;99.90;;;;;;5065072;28;20120;-70
2023/05/24 01:30:58;;;;;;;25.77;5.40;;;10.40;99.90;;;;;;5052771;28;20072;-70
2023/05/24 01:33:25;;;;;;;22.08;5.22;;;10.30;99.90;;;;;;5052875;28;20091;-70
2023/05/24 01:35:51;;;;;;;24.50;6.68;;;;;;;;;;5052982;28;20037;-68
2023/05/24 01:38:16;;;;;;;24.00;5.00;;;10.20;99.90;;;;;;5070478;28;20102;-70
2023/05/24 01:40:43;;;;;;;30.90;6.47;;;10.30;99.90;;;;;;5072560;28;20040;-70
2023/05/24 01:43:22;;;;;;;26.73;7.53;;;10.20;99.90;;;;;;5070523;28;20047;-69
2023/05/24 01:46:09;;;;;;;39.00;6.63;;;10.20;99.90;;;;;;5072210;28;20040;-69
2023/05/24 01:48:43;;;;;;;24.95;6.25;;;10.20;99.90;;;;;;5063840;28;20044;-69
2023/05/24 01:51:13;;;;;;;25.80;5.80;;;10.30;99.90;;;;;;5052464;28;20175;-70
2023/05/24 01:53:47;;;;;;;21.35;5.80;;;10.30;99.90;;;;;;5052612;28;20120;-70
2023/05/24 01:56:15;;;;;;;30.90;5.95;;;10.40;99.90;;;;;;5052677;28;20044;-70
2023/05/24 01:58:44;;;;;;;24.85;5.30;;;10.30;99.90;;;;;;5053606;28;20041;-70
2023/05/24 02:01:10;;;;;;;28.83;5.78;;;10.30;99.90;;;;;;5052061;28;20044;-69
2023/05/24 02:03:39;;;;;;;22.65;4.88;;;10.30;99.90;;;;;;5051791;28;20051;-69
2023/05/24 02:06:05;;;;;;;23.23;5.30;;;10.30;99.90;;;;;;5052384;28;20040;-69
2023/05/24 02:08:31;;;;;;;20.00;4.90;;;;;;;;;;5063778;28;20095;-70
2023/05/24 02:10:57;;;;;;;21.40;5.30;;;10.30;99.90;;;;;;5071638;28;20101;-70
2023/05/24 02:13:22;;;;;;;28.50;5.95;;;10.30;99.90;;;;;;5072064;28;20445;-69
2023/05/24 02:15:50;;;;;;;18.58;4.95;;;;;;;;;;5072021;28;20037;-69
2023/05/24 02:18:17;;;;;;;19.55;5.45;;;10.20;99.90;;;;;;5062516;28;20041;-69
2023/05/24 02:20:43;;;;;;;26.35;5.50;;;10.20;99.90;;;;;;5052107;28;20518;-69
2023/05/24 02:23:09;;;;;;;18.95;4.90;;;;;;;;;;5050515;28;20040;-69
2023/05/24 02:25:34;;;;;;;24.52;6.57;;;10.00;99.90;;;;;;5052038;28;20123;-69
2023/05/24 02:28:00;;;;;;;29.85;6.68;;;10.10;99.90;;;;;;5057646;28;20040;-69
2023/05/24 02:30:26;;;;;;;28.55;6.03;;;10.10;99.90;;;;;;5071969;28;20503;-69
2023/05/24 02:32:52;;;;;;;32.95;6.00;;;10.20;99.90;;;;;;5071167;28;20043;-69
2023/05/24 02:35:18;;;;;;;25.45;5.65;;;10.20;99.90;;;;;;5072099;28;20074;-69
2023/05/24 02:37:43;;;;;;;17.92;4.45;;;10.10;99.90;;;;;;5067439;28;20108;-69
2023/05/24 02:40:09;;;;;;;23.63;5.00;;;10.20;99.90;;;;;;5051692;28;20037;-70
2023/05/24 02:42:35;;;;;;;28.73;5.10;;;10.20;99.90;;;;;;5051461;28;20652;-69
2023/05/24 02:45:01;;;;;;;28.60;5.38;;;10.10;99.90;;;;;;5051809;28;20037;-69
2023/05/24 02:47:27;;;;;;;19.58;5.40;;;10.10;99.90;;;;;;5053217;28;20064;-70
2023/05/24 02:49:53;;;;;;;24.75;5.47;;;10.20;99.90;;;;;;5071913;28;20208;-69
2023/05/24 02:52:21;;;;;;;17.02;4.35;;;10.10;99.90;;;;;;5057929;28;20037;-68
2023/05/24 02:54:47;;;;;;;19.38;5.03;;;10.30;99.90;;;;;;5051672;28;20108;-69
2023/05/24 02:57:13;;;;;;;26.45;4.78;;;10.00;99.90;;;;;;5051530;28;20041;-69
2023/05/24 02:59:38;;;;;;;24.85;5.60;;;10.20;99.90;;;;;;5071264;28;20499;-69
2023/05/24 03:02:04;;;;;;;23.15;4.93;;;10.10;99.90;;;;;;5071188;28;20043;-68
2023/05/24 03:04:30;;;;;;;33.53;6.05;;;10.10;99.90;;;;;;5072031;28;20036;-69
2023/05/24 03:06:55;;;;;;;27.50;5.78;;;10.10;99.90;;;;;;5071512;28;20048;-70
2023/05/24 03:09:21;;;;;;;24.52;4.20;;;10.00;99.90;;;;;;5054993;28;20120;-70
2023/05/24 03:11:47;;;;;;;21.38;5.15;;;10.00;99.90;;;;;;5051453;28;20045;-70
2023/05/24 03:14:12;;;;;;;23.73;5.65;;;10.00;99.90;;;;;;5051569;28;20112;-69
2023/05/24 03:16:38;;;;;;;25.70;4.82;;;10.10;99.90;;;;;;5050026;28;20033;-69
2023/05/24 03:19:04;;;;;;;22.25;5.72;;;10.00;99.90;;;;;;5066062;28;20031;-70
2023/05/24 03:21:30;;;;;;;18.38;4.45;;;;;;;;;;5072096;28;20048;-69
2023/05/24 03:23:57;;;;;;;30.15;5.57;;;;;;;;;;5071384;28;20078;-69
2023/05/24 03:26:23;;;;;;;25.60;4.70;;;;;;;;;;5071385;28;20052;-67
2023/05/24 03:28:50;;;;;;;21.08;5.28;;;9.70;99.90;;;;;;5058736;28;20078;-68
2023/05/24 03:31:16;;;;;;;30.00;5.15;;;;;;;;;;5051412;28;20048;-68
2023/05/24 03:33:42;;;;;;;25.60;5.72;;;9.90;99.90;;;;;;5070622;28;20412;-68
2023/05/24 03:36:08;;;;;;;22.20;5.20;;;;;;;;;;5071266;28;20032;-67
2023/05/24 03:38:34;;;;;;;27.48;5.90;;;;;;;;;;5061005;28;20435;-68
2023/05/24 03:41:00;;;;;;;22.58;5.95;;;;;;;;;;5049950;28;20048;-68
2023/05/24 03:43:25;;;;;;;22.67;6.53;;;9.90;99.90;;;;;;5050948;28;20044;-67
2023/05/24 03:45:51;;;;;;;17.58;4.80;;;9.90;99.90;;;;;;5054793;28;20415;-67
2023/05/24 03:48:19;;;;;;;20.92;4.43;;;9.80;99.90;;;;;;5062516;28;20048;-67
2023/05/24 03:50:45;;;;;;;22.95;4.40;;;10.00;99.90;;;;;;5075068;28;20040;-68
2023/05/24 03:53:11;;;;;;;27.75;5.57;;;10.10;99.90;;;;;;5074616;28;20393;-67
2023/05/24 03:55:37;;;;;;;30.30;5.63;;;;;;;;;;5074758;28;20034;-68
2023/05/24 03:58:03;;;;;;;18.13;4.50;;;;;;;;;;5067669;28;20076;-68
2023/05/24 04:00:29;;;;;;;17.55;4.40;;;;;;;;;;5054791;28;20103;-68
2023/05/24 04:02:55;;;;;;;12.40;4.20;;;;;;;;;;5054611;28;20044;-66
2023/05/24 04:05:25;;;;;;;19.77;4.25;;;10.10;99.90;;;;;;5054851;28;20119;-67
2023/05/24 04:07:51;;;;;;;17.55;4.18;;;10.00;99.90;;;;;;5058231;28;20036;-67
2023/05/24 04:10:17;;;;;;;14.32;5.25;;;;;;;;;;5074541;28;20040;-68
2023/05/24 04:12:44;;;;;;;23.63;4.32;;;10.10;99.90;;;;;;5074074;28;20041;-68
2023/05/24 04:15:14;;;;;;;17.23;5.07;;;;;;;;;;5074718;28;20040;-68
2023/05/24 04:17:42;;;;;;;21.80;5.32;;;10.20;99.90;;;;;;5072198;28;20044;-67
2023/05/24 04:20:08;;;;;;;14.48;4.55;;;;;;;;;;5054360;28;20052;-67
2023/05/24 04:22:37;;;;;;;14.40;4.78;;;;;;;;;;5054118;28;20087;-67
2023/05/24 04:25:03;;;;;;;14.50;4.70;;;;;;;;;;5054315;28;20047;-68
2023/05/24 04:27:30;;;;;;;20.60;5.00;;;;;;;;;;5054295;28;20045;-68
2023/05/24 04:29:56;;;;;;;23.70;4.72;;;;;;;;;;5072849;28;20179;-68
2023/05/24 04:32:22;;;;;;;21.48;5.18;;;10.30;99.90;;;;;;5073993;28;20045;-68
2023/05/24 04:34:49;;;;;;;24.42;6.10;;;10.40;99.90;;;;;;5074222;28;20041;-68
2023/05/24 04:37:16;;;;;;;28.70;4.95;;;10.50;99.90;;;;;;5044388;28;20048;-68
2023/05/24 04:39:43;;;;;;;23.90;5.25;;;10.50;99.90;;;;;;5053912;28;20079;-68
2023/05/24 04:42:09;;;;;;;20.73;4.70;;;;;;;;;;5053611;28;20640;-68
2023/05/24 04:44:34;;;;;;;21.15;4.90;;;10.60;99.90;;;;;;5071520;28;20072;-68
2023/05/24 04:47:02;;;;;;;20.00;4.60;;;10.50;99.90;;;;;;5073430;28;20042;-68
2023/05/24 04:49:28;;;;;;;22.60;5.85;;;10.70;99.90;;;;;;5074028;28;20044;-68
2023/05/24 04:51:54;;;;;;;23.95;5.00;;;;;;;;;;5073508;28;20500;-67
2023/05/24 04:54:20;;;;;;;21.95;4.55;;;;;;;;;;5073704;28;20051;-68
2023/05/24 04:56:46;;;;;;;24.35;4.93;;;10.60;99.90;;;;;;5066867;28;20036;-68
2023/05/24 04:59:12;;;;;;;20.77;5.18;;;;;;;;;;5053835;28;20040;-68
2023/05/24 05:01:38;;;;;;;19.50;5.03;;;10.90;99.90;;;;;;5053625;28;20181;-68
2023/05/24 05:04:04;;;;;;;24.65;6.65;;;10.90;99.90;;;;;;5053472;28;20432;-68
2023/05/24 05:06:30;;;;;;;16.73;4.85;;;;;;;;;;5056973;28;20144;-68
2023/05/24 05:08:56;;;;;;;30.15;5.60;;;;;;;;;;5072953;28;20041;-68
2023/05/24 05:11:22;;;;;;;25.67;4.88;;;11.10;99.90;;;;;;5073219;28;20732;-67
2023/05/24 05:13:47;;;;;;;20.65;6.20;;;11.10;99.90;;;;;;5073412;28;20131;-68
2023/05/24 05:16:13;;;;;;;21.45;6.60;;;11.20;99.90;;;;;;5071192;28;20411;-68
2023/05/24 05:18:39;;;;;;;25.70;6.82;;;;;;;;;;5052796;28;20111;-68
2023/05/24 05:21:06;;;;;;;27.13;6.80;;;11.20;99.90;;;;;;5052345;28;20068;-67
2023/05/24 05:23:32;;;;;;;29.25;6.50;;;;;;;;;;5052449;28;20437;-68
2023/05/24 05:25:58;;;;;;;27.13;7.75;;;;;;;;;;5052210;28;20072;-67
2023/05/24 05:28:24;;;;;;;30.33;6.50;;;11.30;99.90;;;;;;5070857;28;20115;-67
2023/05/24 05:30:50;;;;;;;17.83;7.40;;;;;;;;;;5072851;28;20471;-68
2023/05/24 05:33:16;;;;;;;26.25;7.05;;;;;;;;;;5066026;28;20037;-68
2023/05/24 05:35:41;;;;;;;19.92;6.28;;;11.40;99.90;;;;;;5072643;28;20036;-68
2023/05/24 05:38:07;;;;;;;27.23;6.10;;;;;;;;;;5052910;28;20049;-68
2023/05/24 05:40:33;;;;;;;23.25;6.82;;;11.40;99.90;;;;;;5053031;28;20455;-68
2023/05/24 05:42:58;;;;;;;15.55;5.30;;;11.50;99.90;;;;;;5052692;28;20115;-68
2023/05/24 05:45:24;;;;;;;26.70;7.50;;;;;;;;;;5058036;28;20035;-67
2023/05/24 05:47:50;;;;;;;23.63;6.22;;;;;;;;;;5069581;28;20040;-68
2023/05/24 05:50:16;;;;;;;22.58;8.35;;;;;;;;;;5059148;28;20140;-68
2023/05/24 05:52:42;;;;;;;27.30;6.32;;;11.50;99.90;;;;;;5058690;28;20103;-68
2023/05/24 05:55:08;;;;;;;26.33;8.20;;;11.50;99.90;;;;;;5049721;28;20037;-67
2023/05/24 05:57:34;;;;;;;16.02;5.20;;;;;;;;;;5049480;28;20043;-68
2023/05/24 06:00:00;;;;;;;24.48;5.97;;;11.80;99.90;;;;;;5054697;28;20176;-67
2023/05/24 06:02:26;;;;;;;22.88;5.22;;;11.80;99.90;;;;;;5067278;28;20107;-67
2023/05/24 06:04:51;;;;;;;27.80;4.57;;;11.80;99.90;;;;;;5050358;28;20123;-67
2023/05/24 06:07:17;;;;;;;26.08;6.00;;;;;;;;;;5060290;28;20041;-67
2023/05/24 06:09:43;;;;;;;18.98;4.88;;;;;;;;;;5048638;28;20048;-68
2023/05/24 06:12:09;;;;;;;25.50;5.78;;;12.10;99.90;;;;;;5046602;28;20490;-67
2023/05/24 06:14:37;;;;;;;20.63;5.40;;;;;;;;;;5051762;28;20121;-67
2023/05/24 06:17:03;;;;;;;18.77;5.45;;;;;;;;;;5048516;28;20041;-67
2023/05/24 06:19:29;;;;;;;18.45;5.72;;;12.20;99.90;;;;;;5048627;28;20086;-67
2023/05/24 06:21:56;;;;;;;27.92;6.97;;;;;;;;;;5066407;28;20036;-66
2023/05/24 06:24:22;;;;;;;19.52;4.32;;;;;;;;;;5058808;28;20115;-68
2023/05/24 06:26:48;;;;;;;19.15;4.05;;;;;;;;;;5060038;28;20052;-67
2023/05/24 06:29:14;;;;;;;25.73;7.30;;;;;;;;;;5060495;28;20037;-68
2023/05/24 06:31:42;;;;;;;25.20;5.72;;;;;;;;;;5065998;28;20555;-68
2023/05/24 06:34:07;;;;;;;21.55;4.95;;;12.30;99.90;;;;;;5060777;28;20496;-68
2023/05/24 06:36:34;;;;;;;19.77;3.97;;;12.20;99.90;;;;;;5060546;28;20033;-68
2023/05/24 06:39:00;;;;;;;18.88;4.32;;;12.40;99.90;;;;;;5060728;28;20447;-68
2023/05/24 06:41:26;;;;;;;19.27;4.35;;;12.40;99.90;;;;;;5060871;28;20036;-68
2023/05/24 06:43:52;;;;;;;16.67;3.88;;;12.40;99.90;;;;;;5062061;28;20415;-68
2023/05/24 06:46:18;;;;;;;22.20;4.68;;;;;;;;;;5060886;28;20107;-68
2023/05/24 06:48:44;;;;;;;17.77;4.97;;;12.70;99.90;;;;;;5061608;28;20041;-67
2023/05/24 06:51:10;;;;;;;20.10;5.05;;;;;;;;;;5060155;28;20447;-67
2023/05/24 06:53:36;;;;;;;19.95;3.83;;;12.70;99.90;;;;;;5061735;28;20107;-67
2023/05/24 06:56:02;;;;;;;19.05;4.43;;;;;;;;;;5055316;28;20584;-67
2023/05/24 06:58:28;;;;;;;20.02;4.35;;;;;;;;;;5056450;28;20459;-69
2023/05/24 07:00:54;;;;;;;15.93;3.92;;;;;;;;;;5068135;28;20038;-68
2023/05/24 07:03:20;;;;;;;16.58;4.10;;;12.80;99.90;;;;;;5059506;28;20124;-68
2023/05/24 07:05:46;;;;;;;12.27;3.63;;;;;;;;;;5050008;28;20045;-73
2023/05/24 07:08:12;;;;;;;23.08;5.95;;;;;;;;;;5048348;28;20122;-68
2023/05/24 07:10:37;;;;;;;13.02;4.60;;;13.10;99.90;;;;;;5066669;28;20044;-69
2023/05/24 07:13:03;;;;;;;16.13;3.50;;;13.10;99.90;;;;;;5055174;28;20045;-69
2023/05/24 07:15:29;;;;;;;13.00;3.42;;;13.20;99.90;;;;;;5064863;28;20400;-68
2023/05/24 07:17:55;;;;;;;15.70;4.47;;;;;;;;;;5067566;28;20120;-69
2023/05/24 07:20:21;;;;;;;19.60;4.25;;;;;;;;;;5074213;28;20071;-66
2023/05/24 07:22:47;;;;;;;15.18;5.22;;;;;;;;;;5055999;28;20090;-68
2023/05/24 07:25:13;;;;;;;19.08;4.45;;;13.40;99.90;;;;;;5053670;28;20041;-68
2023/05/24 07:27:39;;;;;;;19.30;4.18;;;;;;;;;;5059690;28;20033;-68
2023/05/24 07:30:06;;;;;;;12.48;3.70;;;13.30;99.90;;;;;;5058928;28;20561;-69
2023/05/24 07:32:32;;;;;;;24.70;4.90;;;13.40;99.90;;;;;;5053632;28;20076;-68
2023/05/24 07:34:58;;;;;;;14.75;3.25;;;13.30;99.90;;;;;;5061314;28;20161;-68
2023/05/24 07:37:24;;;;;;;20.17;4.30;;;13.50;99.90;;;;;;5063481;28;20507;-69
2023/05/24 07:39:50;;;;;;;14.02;3.67;;;;;;;;;;5055299;28;20112;-68
2023/05/24 07:42:17;;;;;;;12.63;3.17;;;;;;;;;;5073551;28;20059;-68
2023/05/24 07:44:42;;;;;;;12.75;3.78;;;13.30;99.90;;;;;;5074186;28;20086;-67
2023/05/24 07:47:08;;;;;;;13.80;3.53;;;13.40;99.90;;;;;;5065230;28;20037;-68
2023/05/24 07:49:33;;;;;;;13.88;3.60;;;13.20;99.90;;;;;;5054017;28;20044;-68
2023/05/24 07:51:59;;;;;;;15.05;4.35;;;13.40;99.90;;;;;;5053343;28;20412;-68
2023/05/24 07:54:25;;;;;;;13.98;4.22;;;;;;;;;;5066410;28;20040;-68
2023/05/24 07:56:51;;;;;;;19.20;3.72;;;13.40;99.90;;;;;;5059843;28;20467;-67
2023/05/24 07:59:17;;;;;;;15.65;4.47;;;;;;;;;;5067142;28;20712;-68
2023/05/24 08:01:44;;;;;;;10.55;2.78;;;;;;;;;;5056785;28;20064;-68
2023/05/24 08:04:10;;;;;;;17.77;4.78;;;;;;;;;;5053459;28;20416;-68
2023/05/24 08:06:36;;;;;;;12.75;3.28;;;13.40;99.90;;;;;;5060562;28;20045;-67
2023/05/24 08:09:03;;;;;;;14.65;3.10;;;13.90;99.90;;;;;;5051218;28;20071;-67
2023/05/24 08:11:29;;;;;;;17.02;4.00;;;;;;;;;;5053641;28;20048;-67
2023/05/24 08:13:55;;;;;;;21.58;5.72;;;;;;;;;;5053573;28;20044;-68
2023/05/24 08:16:21;;;;;;;16.75;3.85;;;13.40;99.90;;;;;;5053697;28;20120;-68
2023/05/24 08:18:47;;;;;;;17.92;4.22;;;;;;;;;;5053253;28;20119;-68
2023/05/24 08:21:13;;;;;;;18.15;3.85;;;;;;;;;;5053262;28;20062;-68
2023/05/24 08:23:38;;;;;;;11.70;3.33;;;13.80;99.90;;;;;;5052856;28;20033;-68
2023/05/24 08:26:04;;;;;;;14.40;4.72;;;;;;;;;;5053380;28;20489;-68
2023/05/24 08:28:30;;;;;;;14.10;3.75;;;;;;;;;;5053794;28;20104;-68
2023/05/24 08:30:58;;;;;;;9.48;3.30;;;;;;;;;;5052314;28;20523;-68
2023/05/24 08:33:23;;;;;;;14.63;4.20;;;13.60;99.90;;;;;;5070178;28;20048;-68
2023/05/24 08:35:50;;;;;;;16.02;4.18;;;13.20;99.90;;;;;;5064473;28;20041;-68
2023/05/24 08:38:16;;;;;;;21.00;4.22;;;13.40;99.90;;;;;;5058643;28;20139;-68
2023/05/24 08:40:42;;;;;;;17.77;4.15;;;13.50;99.90;;;;;;5064360;28;20032;-68
2023/05/24 08:43:10;;;;;;;12.48;4.00;;;;;;;;;;5062197;28;20569;-68
2023/05/24 08:45:38;;;;;;;13.57;3.45;;;13.50;99.90;;;;;;5063828;28;20040;-70
2023/05/24 08:48:07;;;;;;;14.65;3.20;;;13.50;99.90;;;;;;5068653;28;20045;-70
2023/05/24 08:50:33;;;;;;;17.80;5.78;;;13.60;99.90;;;;;;5070147;28;20040;-70
2023/05/24 08:53:03;;;;;;;14.32;3.65;;;;;;;;;;5052033;28;20139;-70
2023/05/24 08:55:29;;;;;;;16.65;5.45;;;13.80;99.90;;;;;;5062653;28;20037;-70
2023/05/24 08:57:56;;;;;;;15.52;3.40;;;13.80;99.90;;;;;;5060727;28;20032;-69
2023/05/24 09:00:22;;;;;;;14.68;3.88;;;13.80;99.90;;;;;;5065122;28;20042;-70
2023/05/24 09:02:48;;;;;;;15.18;4.30;;;13.70;99.90;;;;;;5069878;28;20487;-69
2023/05/24 09:05:15;;;;;;;16.58;4.80;;;13.80;99.90;;;;;;5062029;28;20079;-66
2023/05/24 09:07:42;;;;;;;11.50;3.42;;;13.50;99.90;;;;;;5067422;28;20124;-67
2023/05/24 09:10:09;;;;;;;11.68;3.95;;;13.30;99.90;;;;;;5064694;28;20656;-68
2023/05/24 09:12:37;;;;;;;18.50;3.95;;;13.80;99.90;;;;;;5052174;28;20416;-68
2023/05/24 09:15:04;;;;;;;10.52;2.65;;;13.80;99.90;;;;;;5057372;28;20039;-70
2023/05/24 09:17:37;;;;;;;16.95;3.80;;;13.70;99.90;;;;;;5052790;28;20032;-68
2023/05/24 09:20:05;;;;;;;16.33;3.13;;;13.70;99.90;;;;;;5057504;28;20453;-68
2023/05/24 09:22:32;;;;;;;10.13;3.53;;;;;;;;;;5058156;28;20036;-67
2023/05/24 09:25:00;;;;;;;7.90;3.58;;;13.20;99.90;;;;;;5062027;28;20126;-67
2023/05/24 09:27:26;;;;;;;12.25;3.45;;;13.40;99.90;;;;;;5063750;28;20029;-67
2023/05/24 09:29:53;;;;;;;16.85;3.40;;;13.50;99.90;;;;;;5066496;28;20040;-68
2023/05/24 09:32:23;;;;;;;11.75;2.95;;;13.60;99.90;;;;;;5071884;28;20435;-68
2023/05/24 09:34:52;;;;;;;9.93;3.17;;;13.60;99.90;;;;;;5063542;28;20065;-67
2023/05/24 09:37:23;;;;;;;10.65;3.33;;;13.50;99.90;;;;;;5061746;28;20041;-68
2023/05/24 09:39:50;;;;;;;8.75;3.15;;;;;;;;;;5060848;28;20041;-68
2023/05/24 09:42:25;;;;;;;13.88;3.47;;;14.00;99.90;;;;;;5059572;28;20036;-68
2023/05/24 09:45:09;;;;;;;11.43;3.55;;;14.30;99.90;;;;;;5061323;28;20040;-68
2023/05/24 09:47:44;;;;;;;11.38;3.53;;;14.30;99.90;;;;;;5059609;28;20043;-69
2023/05/24 09:50:14;;;;;;;5.80;2.65;;;14.20;99.90;;;;;;5055172;28;20032;-68
2023/05/24 09:52:40;;;;;;;9.20;3.17;;;14.30;99.90;;;;;;5060719;28;20173;-69
2023/05/24 09:55:16;;;;;;;12.32;2.85;;;14.70;99.90;;;;;;5060632;28;20044;-68
2023/05/24 09:57:43;;;;;;;10.15;3.70;;;14.70;99.90;;;;;;5062261;28;20056;-68
2023/05/24 10:00:15;;;;;;;12.55;3.78;;;14.60;99.90;;;;;;5063128;28;20089;-68
2023/05/24 10:02:42;;;;;;;12.82;3.20;;;14.90;99.90;;;;;;5064751;28;20183;-68
2023/05/24 10:05:10;;;;;;;10.68;3.25;;;15.00;99.90;;;;;;5070049;28;20068;-68
2023/05/24 10:07:37;;;;;;;14.90;3.88;;;;;;;;;;5061855;28;20051;-67
2023/05/24 10:10:04;;;;;;;10.05;3.30;;;14.90;99.90;;;;;;5061916;28;20052;-68
2023/05/24 10:12:30;;;;;;;19.40;5.25;;;;;;;;;;5070354;28;20411;-69
2023/05/24 10:14:58;;;;;;;24.00;7.65;;;14.80;99.90;;;;;;5057487;28;20045;-67
2023/05/24 10:17:26;;;;;;;33.40;8.82;;;15.20;99.90;;;;;;5051089;28;20497;-68
2023/05/24 10:19:52;;;;;;;14.07;3.15;;;;;;;;;;5055251;28;20040;-67
2023/05/24 10:22:23;;;;;;;14.63;4.65;;;15.00;99.90;;;;;;5070034;28;20065;-68
2023/05/24 10:24:57;;;;;;;10.65;3.00;;;15.30;99.90;;;;;;5062232;28;20060;-67
2023/05/24 10:27:25;;;;;;;11.38;3.30;;;15.50;99.90;;;;;;5051420;28;20455;-66
2023/05/24 10:30:21;;;;;;;14.55;3.90;;;15.10;99.90;;;;;;5051158;28;20532;-67
2023/05/24 10:32:47;;;;;;;11.82;3.63;;;15.20;99.90;;;;;;5062032;28;20119;-67
2023/05/24 10:35:14;;;;;;;13.10;3.10;;;14.70;99.90;;;;;;5052856;28;20036;-68
2023/05/24 10:37:41;;;;;;;11.32;3.53;;;15.10;99.90;;;;;;5061270;28;20086;-68
2023/05/24 10:40:15;;;;;;;13.05;3.35;;;15.10;99.90;;;;;;5059167;28;20139;-68
2023/05/24 10:42:42;;;;;;;12.43;3.22;;;15.30;99.90;;;;;;5058803;28;20115;-67
2023/05/24 10:45:23;;;;;;;11.32;3.13;;;15.10;99.90;;;;;;5054991;28;20040;-69
2023/05/24 10:47:50;;;;;;;10.85;2.88;;;;;;;;;;5056186;28;20519;-68
2023/05/24 10:50:17;;;;;;;12.20;3.25;;;15.30;99.90;;;;;;5054082;28;20032;-68
2023/05/24 10:52:42;;;;;;;8.95;2.72;;;15.90;99.90;;;;;;5058114;28;20160;-67
2023/05/24 10:55:10;;;;;;;17.23;3.30;;;15.70;99.90;;;;;;5050842;28;20076;-67
2023/05/24 10:57:37;;;;;;;11.57;3.22;;;;;;;;;;5070065;28;20066;-67
2023/05/24 11:00:27;;;;;;;10.93;2.88;;;15.80;99.90;;;;;;5070418;28;20126;-68
2023/05/24 11:03:11;;;;;;;12.73;3.05;;;15.20;99.90;;;;;;5067062;28;20041;-68
2023/05/24 11:05:46;;;;;;;11.27;2.97;;;15.40;99.90;;;;;;5060499;28;20654;-67
2023/05/24 11:08:12;;;;;;;12.90;3.75;;;16.00;99.90;;;;;;5051445;28;20049;-68
2023/05/24 11:10:38;;;;;;;9.82;3.70;;;16.00;99.90;;;;;;5060391;28;20037;-68
2023/05/24 11:13:07;;;;;;;11.05;3.60;;;16.00;99.90;;;;;;5060789;28;20098;-67
2023/05/24 11:15:34;;;;;;;11.70;3.88;;;16.40;99.90;;;;;;5058965;28;20098;-68
2023/05/24 11:18:11;;;;;;;11.18;2.75;;;16.40;99.90;;;;;;5064230;28;20477;-69
2023/05/24 11:20:37;;;;;;;18.40;3.72;;;;;;;;;;5057336;28;20044;-68
2023/05/24 11:23:03;;;;;;;11.73;3.92;;;16.00;99.90;;;;;;5057952;28;20500;-68
2023/05/24 11:25:29;;;;;;;11.35;3.47;;;16.60;99.90;;;;;;5059991;28;20075;-68
2023/05/24 11:27:57;;;;;;;14.90;2.90;;;16.50;99.90;;;;;;5058662;28;20029;-68
2023/05/24 11:30:23;;;;;;;12.18;3.50;;;16.50;99.90;;;;;;5057391;28;20037;-68
2023/05/24 11:32:49;;;;;;;12.82;3.42;;;16.20;99.90;;;;;;5060165;28;20105;-69
2023/05/24 11:35:17;;;;;;;8.35;3.13;;;16.80;99.90;;;;;;5057508;28;20501;-68
2023/05/24 11:37:44;;;;;;;11.27;3.28;;;16.80;99.90;;;;;;5067228;28;20499;-69
2023/05/24 11:40:10;;;;;;;7.90;3.55;;;16.70;99.90;;;;;;5060174;28;20043;-68
2023/05/24 11:42:38;;;;;;;9.48;2.72;;;16.70;99.90;;;;;;5056079;28;20036;-68
2023/05/24 11:45:05;;;;;;;12.18;3.28;;;16.20;99.90;;;;;;5064543;28;20443;-68
2023/05/24 11:47:36;;;;;;;11.32;2.85;;;16.20;99.90;;;;;;5049717;28;20044;-68
2023/05/24 11:50:02;;;;;;;12.77;3.63;;;;;;;;;;5050591;28;20056;-68
2023/05/24 11:52:28;;;;;;;9.80;2.33;;;;;;;;;;5057139;28;20037;-68
2023/05/24 11:54:54;;;;;;;9.35;4.15;;;16.80;99.90;;;;;;5070303;28;20170;-68
2023/05/24 11:57:40;;;;;;;7.78;2.58;;;16.50;99.90;;;;;;5051575;28;20112;-69
2023/05/24 12:00:10;;;;;;;10.30;2.83;;;15.90;99.90;;;;;;5058703;28;20148;-69
2023/05/24 12:02:39;;;;;;;10.48;3.05;;;;;;;;;;5049944;28;20049;-68
2023/05/24 12:05:10;;;;;;;10.35;2.97;;;16.00;99.90;;;;;;5054063;28;20052;-69
2023/05/24 12:07:36;;;;;;;10.35;2.50;;;15.90;99.90;;;;;;5052818;28;20190;-69
2023/05/24 12:10:03;;;;;;;17.75;3.15;;;;;;;;;;5054100;28;20043;-69
2023/05/24 12:12:29;;;;;;;8.90;2.50;;;16.90;99.90;;;;;;5067952;28;20139;-70
2023/05/24 12:14:55;;;;;;;9.98;2.97;;;16.60;99.90;;;;;;5073601;28;20048;-70
2023/05/24 12:17:21;;;;;;;7.47;2.90;;;16.30;99.90;;;;;;5055260;28;20036;-70
2023/05/24 12:19:49;;;;;;;9.35;3.35;;;16.40;99.90;;;;;;5053573;28;20063;-69
2023/05/24 12:22:15;;;;;;;8.88;3.45;;;16.40;99.90;;;;;;5053519;28;20120;-69
2023/05/24 12:24:41;;;;;;;5.57;2.60;;;16.20;99.90;;;;;;5061822;28;20140;-69
2023/05/24 12:27:07;;;;;;;14.35;3.15;;;16.70;99.90;;;;;;5053488;28;20522;-70
2023/05/24 12:29:38;;;;;;;8.25;2.50;;;17.10;99.90;;;;;;5060335;28;20043;-70
2023/05/24 12:32:05;;;;;;;11.63;2.97;;;16.80;99.90;;;;;;5052785;28;20045;-68
2023/05/24 12:34:31;;;;;;;7.25;2.30;;;16.70;99.90;;;;;;5052792;28;20443;-70
2023/05/24 12:36:58;;;;;;;9.75;3.67;;;16.90;99.90;;;;;;5072632;28;20032;-69
2023/05/24 12:39:30;;;;;;;7.35;2.53;;;16.70;99.90;;;;;;5054794;28;20044;-69
2023/05/24 12:41:56;;;;;;;3.88;1.75;;;16.90;99.90;;;;;;5066817;28;20072;-68
2023/05/24 12:44:24;;;;;;;7.15;2.60;;;16.90;99.90;;;;;;5073484;28;20094;-69
2023/05/24 12:46:52;;;;;;;10.85;2.55;;;16.80;99.90;;;;;;5062606;28;20073;-70
2023/05/24 12:49:17;;;;;;;10.15;2.75;;;16.60;99.90;;;;;;5053586;28;20637;-69
2023/05/24 12:51:43;;;;;;;8.60;2.10;;;16.60;99.90;;;;;;5057696;28;20041;-70
2023/05/24 12:54:09;;;;;;;7.63;1.65;;;17.40;99.90;;;;;;5073092;28;20555;-69
2023/05/24 12:56:34;;;;;;;8.18;2.42;;;17.00;99.90;;;;;;5073237;28;20373;-70
2023/05/24 12:59:00;;;;;;;8.88;2.20;;;17.10;99.90;;;;;;5064486;28;20036;-69
2023/05/24 13:01:26;;;;;;;11.15;3.05;;;17.10;99.90;;;;;;5073541;28;20072;-70
2023/05/24 13:03:52;;;;;;;8.65;2.75;;;17.50;99.90;;;;;;5072955;28;20082;-69
2023/05/24 13:06:18;;;;;;;5.35;2.33;;;18.10;99.90;;;;;;5072857;28;20077;-69
2023/05/24 13:08:44;;;;;;;7.40;2.03;;;16.70;99.90;;;;;;5060445;28;20108;-69